Terminal Aerodrome Forecast
Issued by NWS

Home | Current Version | Previous Version | Graphics & Text | Print | Product List | Glossary On
Versions: 1 2 3 4 5 6 7 8 9 10 11 12 13 14
201
FTUS43 KUNR 062324
TAFGCC
TAF
KGCC 062324Z 0700/0724 30018KT P6SM BKN150
     FM071500 30025G40KT P6SM FEW150=

USA.gov is the U.S. government's official web portal to all federal, state and local government web resources and services.